Date,TemperatureHighF,TemperatureAvgF,TemperatureLowF,DewpointHighF,DewpointAvgF,DewpointLowF,HumidityHigh,HumidityAvg,HumidityLow,PressureMaxIn,PressureMinIn,WindSpeedMaxMPH,WindSpeedAvgMPH,GustSpeedMaxMPH,PrecipitationSumIn
2013-1-1,29.4,19.4,5.0,25.4,10.0,-1.8,92,68,46,29.39,29.12,19,2,19,0.00
2013-1-2,18.4,7.6,-1.2,6.0,-2.0,-9.2,87,65,48,29.59,29.37,24,2,24,0.00
2013-1-3,19.1,3.2,-9.2,5.7,-4.0,-13.7,88,72,48,29.64,29.48,2,0,2,0.00
2013-1-4,32.7,17.8,-3.4,25.3,12.5,-7.0,89,80,64,29.48,29.23,5,0,9,0.00
2013-1-5,34.1,25.9,11.3,24.0,14.5,6.7,85,63,46,29.78,29.25,21,1,21,0.00
2013-1-6,28.0,18.7,10.9,20.4,13.7,7.1,90,81,67,29.75,29.43,1,0,1,0.00
2013-1-7,27.4,19.7,4.5,20.7,13.1,0.9,94,76,54,29.91,29.47,14,0,14,0.00
2013-1-8,27.9,11.9,-0.2,20.4,7.8,-3.6,93,84,70,29.91,29.72,3,0,3,0.00
2013-1-9,36.2,17.3,5.7,29.0,14.5,2.9,95,88,73,29.95,29.43,13,0,13,0.00
2013-1-10,40.2,36.6,28.5,32.8,25.8,21.4,90,65,54,30.04,29.44,28,3,28,0.04
2013-1-11,35.4,27.5,17.3,29.5,22.6,14.8,95,82,60,30.05,29.77,2,0,2,0.00
2013-1-12,35.3,32.4,30.8,34.5,31.5,29.5,98,97,95,29.77,29.63,1,0,1,0.04
2013-1-13,35.0,32.9,31.9,34.5,32.4,31.1,98,98,97,29.67,29.47,1,0,1,0.01
2013-1-14,48.6,36.4,29.9,44.3,31.4,24.3,99,84,52,29.74,29.36,14,1,14,0.01
2013-1-15,37.3,31.2,26.3,26.5,23.6,20.8,90,74,52,29.83,29.74,13,0,13,0.00
2013-1-16,28.3,26.6,22.1,26.3,24.4,20.0,95,91,84,29.78,29.30,1,0,2,0.00
2013-1-17,32.2,22.7,13.4,29.4,16.5,0.3,97,78,38,29.64,29.29,16,0,16,0.00
2013-1-18,14.6,8.4,-2.2,2.7,-3.9,-10.6,77,57,37,29.91,29.61,13,1,16,0.00
2013-1-19,27.0,16.0,-2.4,24.5,13.0,-7.4,94,88,78,29.87,29.38,2,0,2,0.00
2013-1-20,42.3,25.4,11.5,32.0,17.5,8.2,97,74,47,29.38,28.95,6,0,12,0.09
2013-1-21,25.3,15.2,0.8,10.5,3.4,-5.0,85,60,36,29.55,29.36,4,0,6,0.00
2013-1-22,23.2,11.6,-0.5,9.8,2.6,-10.8,87,68,43,29.56,29.31,12,0,13,0.00
2013-1-23,3.7,-3.9,-14.5,-10.1,-15.6,-20.2,75,57,38,29.63,29.55,14,0,14,0.00
2013-1-24,10.0,-2.9,-18.7,-5.8,-13.9,-23.7,83,61,36,29.67,29.49,24,2,24,0.00
2013-1-25,16.6,5.4,-7.2,2.5,-4.1,-12.2,82,65,43,29.75,29.60,12,0,12,0.00
2013-1-26,16.1,10.0,0.8,2.7,-1.9,-6.7,87,60,38,29.68,29.54,25,4,25,0.00
2013-1-27,24.0,13.3,2.9,4.4,-1.0,-5.1,72,53,33,29.95,29.67,20,3,25,0.00
2013-1-28,19.7,9.8,-3.0,14.7,3.8,-7.3,91,77,42,29.95,29.61,1,0,1,0.00
2013-1-29,29.5,18.2,1.7,26.6,15.4,-2.1,96,89,80,29.75,29.60,0,0,0,0.00
2013-1-30,33.6,32.0,27.6,33.1,31.3,26.6,98,97,96,29.67,28.95,4,0,4,0.14
2013-1-31,47.7,36.7,26.5,47.7,29.6,11.2,100,78,44,28.97,28.32,14,0,14,1.25
2013-2-1,26.5,21.1,13.2,14.4,7.5,3.3,72,56,42,29.53,28.97,16,1,16,0.00
2013-2-2,22.9,14.8,5.3,14.3,6.9,1.8,87,71,46,29.70,29.53,4,0,4,0.00
2013-2-3,25.6,18.1,8.0,14.8,11.2,4.8,92,75,54,29.58,29.23,4,0,7,0.00
2013-2-4,26.8,18.5,11.8,14.3,7.0,-3.6,90,62,39,29.39,29.18,14,0,14,0.00
2013-2-5,22.0,11.6,-0.4,6.6,0.1,-5.1,83,61,35,29.55,29.39,2,0,3,0.00
2013-2-6,32.0,20.1,13.0,20.9,9.6,-6.0,86,65,37,29.79,29.44,10,0,10,0.00
2013-2-7,19.7,12.7,4.6,1.7,-2.8,-6.9,75,50,33,30.09,29.78,10,0,10,0.00
2013-2-8,14.3,11.7,7.8,11.8,6.7,-6.7,90,81,42,30.08,29.49,14,2,14,0.00
2013-2-9,15.7,14.2,12.6,13.8,10.5,5.8,92,85,69,29.67,29.33,25,7,25,0.00
2013-2-10,31.0,17.9,6.3,14.5,6.4,0.3,84,61,39,29.89,29.67,22,1,22,0.00
2013-2-11,22.9,13.6,-0.2,21.4,11.0,-3.9,95,89,77,29.88,29.12,1,0,1,0.00
2013-2-12,38.3,29.6,19.6,35.2,26.7,17.8,98,89,73,29.29,29.06,5,0,10,0.22
2013-2-13,37.1,28.8,18.5,26.9,23.0,15.6,95,80,56,29.34,29.26,12,0,12,0.04
2013-2-14,36.3,27.8,20.1,23.9,21.1,16.1,92,77,52,29.52,29.23,11,1,11,0.00
2013-2-15,44.2,28.7,19.0,31.0,22.9,16.3,93,80,54,29.52,29.38,1,0,3,0.00
2013-2-16,34.8,28.8,23.8,28.5,21.5,6.5,96,75,47,29.47,29.31,18,2,18,0.01
2013-2-17,23.8,18.8,15.1,10.5,5.7,0.8,68,56,47,29.31,28.80,31,9,33,0.00
2013-2-18,27.4,18.4,10.9,8.4,2.4,-1.9,62,50,30,29.57,29.00,34,8,34,0.00
2013-2-19,38.8,22.2,5.2,29.9,12.4,-1.2,96,69,27,29.65,29.11,1,0,3,0.00
2013-2-20,35.2,30.2,23.9,31.2,26.2,18.3,97,85,65,29.17,28.97,9,0,9,0.20
2013-2-21,25.6,21.6,14.2,20.9,13.7,8.1,87,71,60,29.73,29.16,25,4,25,0.00
2013-2-22,38.1,29.3,22.2,25.2,20.4,15.9,86,70,51,29.94,29.73,20,1,20,0.01
2013-2-23,32.6,28.0,23.2,29.0,24.8,19.9,96,88,77,29.86,29.53,1,0,1,0.00
2013-2-24,31.7,29.4,27.5,30.2,28.3,26.5,97,95,93,29.54,29.32,0,0,0,0.00
2013-2-25,40.5,30.8,23.7,35.0,28.8,22.2,96,92,77,29.77,29.43,3,0,3,0.30
2013-2-26,40.2,31.4,22.4,31.8,27.9,20.8,98,87,67,29.89,29.77,4,0,4,0.21
2013-2-27,32.3,29.9,26.1,31.3,28.8,24.8,97,96,93,29.76,29.25,7,0,7,0.04
2013-2-28,38.0,33.0,29.3,35.3,31.7,28.6,98,95,90,29.25,29.08,8,0,8,0.44
2013-3-1,35.5,32.7,27.9,30.1,28.9,26.6,96,86,75,29.20,29.07,10,1,12,0.08
2013-3-2,37.3,33.1,29.8,28.6,27.2,25.6,93,79,66,29.20,29.14,19,3,19,0.01
2013-3-3,38.1,32.7,28.9,31.2,27.8,24.0,96,83,67,29.17,29.07,16,2,16,0.00
2013-3-4,33.4,30.7,28.4,25.4,23.2,21.0,81,73,65,29.28,29.06,22,4,22,0.00
2013-3-5,39.9,35.0,29.4,32.1,28.0,22.7,91,76,66,29.65,29.28,17,4,17,0.00
2013-3-6,35.4,33.0,30.5,31.6,29.2,24.8,96,86,74,29.79,29.65,15,1,15,0.00
2013-3-7,33.1,31.2,29.4,25.4,24.1,23.1,81,75,69,29.76,29.64,18,5,18,0.00
2013-3-8,43.1,35.9,29.2,25.4,22.9,20.5,77,60,42,29.75,29.59,23,5,23,0.00
2013-3-9,48.7,32.2,18.2,28.0,21.7,15.3,93,69,32,29.91,29.73,10,0,10,0.00
2013-3-10,46.5,31.5,18.4,30.8,24.9,16.5,96,78,48,29.94,29.81,2,0,4,0.00
2013-3-11,46.7,36.6,29.7,35.6,30.7,27.4,93,80,57,29.82,29.63,3,0,3,0.00
2013-3-12,38.8,35.3,31.2,38.5,34.4,29.0,99,97,90,29.64,29.24,2,0,2,1.99
2013-3-13,42.2,36.8,29.5,36.6,32.4,26.8,99,85,66,29.27,29.21,10,1,12,0.04
2013-3-14,35.6,26.3,17.1,26.9,18.8,4.7,96,74,55,29.30,29.16,20,2,20,0.00
2013-3-15,34.2,23.8,12.9,22.7,11.9,3.9,86,61,36,29.32,29.11,16,1,16,0.00
2013-3-16,31.7,26.5,22.3,20.8,14.1,10.8,83,59,44,29.41,29.16,11,1,12,0.00
2013-3-17,26.2,19.4,10.7,13.4,7.0,-1.3,92,61,35,29.84,29.41,22,2,22,0.00
2013-3-18,35.9,22.6,6.8,19.6,7.5,-1.1,80,54,28,29.97,29.78,9,0,11,0.00
2013-3-19,28.4,25.3,21.8,25.8,22.4,18.2,94,89,68,29.78,29.26,12,2,13,0.00
2013-3-20,36.0,25.2,13.0,27.1,21.1,10.5,95,85,60,29.26,29.13,8,0,9,0.10
2013-3-21,41.2,25.1,6.1,24.1,16.7,3.1,94,73,38,29.28,29.12,4,0,4,0.14
2013-3-22,35.9,27.1,20.0,21.1,17.8,14.8,88,69,45,29.19,29.13,12,1,13,0.01
2013-3-23,38.3,29.5,13.9,23.9,19.1,9.7,91,66,48,29.22,29.05,18,1,18,0.00
2013-3-24,40.2,34.1,25.4,26.4,24.1,21.9,88,67,52,29.33,29.20,22,4,22,0.00
2013-3-25,40.4,31.3,18.5,29.7,24.8,16.6,96,78,59,29.32,29.11,14,1,14,0.00
2013-3-26,44.2,36.2,28.9,28.3,23.8,20.6,82,62,43,29.27,29.13,17,3,17,0.00
2013-3-27,44.4,34.9,24.3,32.7,27.3,21.5,92,75,49,29.42,29.24,19,2,19,0.00
2013-3-28,44.4,36.7,30.6,36.5,31.7,29.3,97,83,60,29.52,29.42,16,0,16,0.00
2013-3-29,47.6,38.5,29.7,33.9,30.4,27.5,95,74,53,29.55,29.49,16,2,16,0.00
2013-3-30,48.2,37.1,27.9,31.2,24.5,16.5,94,65,30,29.62,29.52,15,2,16,0.00
2013-3-31,53.6,35.8,21.1,31.7,24.7,18.6,93,68,30,29.65,29.35,5,0,6,0.00
2013-4-1,49.0,37.7,31.1,42.9,32.9,15.2,98,84,51,29.35,28.99,8,0,11,0.41
2013-4-2,35.8,29.3,24.9,19.6,15.6,10.6,71,56,38,29.33,29.23,13,0,13,0.00
2013-4-3,42.4,33.5,26.3,21.4,14.5,9.9,78,46,30,29.60,29.33,16,1,16,0.00
2013-4-4,50.4,38.2,29.3,26.0,15.8,9.6,72,41,24,29.73,29.46,15,1,15,0.00
2013-4-5,52.5,37.6,27.9,28.8,24.8,16.8,86,63,34,29.46,29.20,17,2,18,0.00
2013-4-6,36.0,29.3,21.7,22.3,11.9,5.0,77,50,27,29.86,29.37,22,4,25,0.00
2013-4-7,52.0,35.1,22.6,33.3,22.0,13.9,81,61,31,29.86,29.44,4,0,9,0.00
2013-4-8,54.4,43.4,33.9,34.3,32.3,30.0,92,67,42,29.66,29.40,15,1,15,0.00
2013-4-9,46.4,38.3,34.4,44.2,36.2,30.3,98,92,79,29.64,29.42,4,0,5,0.33
2013-4-10,51.6,41.8,35.0,45.0,38.9,34.0,99,90,68,29.51,29.41,5,0,7,0.14
2013-4-11,45.0,39.6,33.7,38.6,26.7,17.3,97,63,35,29.72,29.40,17,3,18,0.01
2013-4-12,34.4,31.8,30.4,30.6,25.3,15.9,97,78,50,29.80,29.45,4,0,5,0.13
2013-4-13,44.3,36.1,30.7,38.5,33.6,30.0,97,91,76,29.46,29.33,3,0,3,0.42
2013-4-14,46.7,38.5,30.8,41.2,33.0,29.3,98,82,53,29.72,29.40,13,0,13,0.01
2013-4-15,59.7,40.8,26.2,38.8,30.9,24.6,97,72,32,29.92,29.72,6,0,6,0.00
2013-4-16,58.5,43.6,29.6,50.4,39.0,27.9,98,85,53,29.92,29.45,6,0,6,0.04
2013-4-17,55.3,47.6,35.1,48.1,32.9,26.4,97,59,36,29.88,29.47,24,4,24,0.01
2013-4-18,51.9,41.7,27.9,38.3,29.8,23.6,93,65,39,30.01,29.64,4,0,4,0.00
2013-4-19,74.1,59.7,45.1,61.5,51.3,36.6,91,74,55,29.64,29.06,11,1,12,0.00
2013-4-20,65.9,51.2,40.0,61.9,38.4,22.5,96,65,36,29.69,29.07,12,0,12,0.19
2013-4-21,47.4,39.0,28.8,24.7,21.1,17.7,69,49,32,30.23,29.68,14,3,19,0.00
2013-4-22,56.0,38.2,24.3,28.7,22.1,17.4,88,57,25,30.34,30.18,5,0,5,0.00
2013-4-23,43.1,35.7,24.8,39.0,31.2,22.8,96,84,72,30.19,29.77,5,0,5,0.00
2013-4-24,70.3,53.1,40.1,54.1,46.7,38.6,96,81,55,29.76,29.26,5,0,9,0.00
2013-4-25,57.7,49.8,35.8,46.2,35.4,25.8,96,61,33,29.82,29.25,20,2,20,0.00
2013-4-26,60.6,44.7,27.9,35.9,30.3,25.6,95,62,31,29.97,29.82,3,0,5,0.00
2013-4-27,63.4,48.7,32.7,41.2,35.4,30.4,97,65,31,29.95,29.79,4,0,4,0.00
2013-4-28,71.0,50.9,31.7,41.7,36.1,29.9,98,63,29,29.86,29.72,6,0,8,0.00
2013-4-29,71.0,51.4,35.3,47.9,38.4,32.1,95,65,31,29.79,29.67,2,0,3,0.00
2013-4-30,74.7,53.5,34.7,44.4,38.8,32.5,97,62,30,29.90,29.77,4,0,4,0.00
2013-5-1,79.0,56.0,34.7,42.7,37.2,32.2,96,56,22,29.98,29.89,5,0,5,0.00
2013-5-2,75.1,52.8,38.2,49.1,39.5,32.0,97,64,33,30.06,29.91,6,0,6,0.00
2013-5-3,71.3,50.7,31.4,47.2,39.1,29.4,97,68,37,30.09,29.89,6,0,6,0.00
2013-5-4,74.5,53.7,38.8,46.0,39.5,29.9,98,65,21,29.92,29.76,5,0,5,0.00
2013-5-5,75.6,52.2,32.7,46.3,38.2,30.5,98,65,26,29.86,29.71,5,0,5,0.00
2013-5-6,78.5,54.7,36.1,49.7,40.8,34.1,98,66,22,29.79,29.62,4,0,4,0.00
2013-5-7,84.0,58.7,40.1,52.0,45.3,38.2,98,68,24,29.70,29.55,6,0,6,0.00
2013-5-8,78.2,61.7,45.5,60.0,53.4,43.9,98,77,42,29.74,29.62,5,0,5,0.01
2013-5-9,67.1,59.3,55.4,61.9,57.4,54.4,98,93,78,29.62,29.41,2,0,2,0.68
2013-5-10,73.4,62.4,53.6,64.2,58.4,53.0,99,88,59,29.46,29.41,4,0,4,0.01
2013-5-11,60.9,57.0,53.8,60.6,56.3,52.6,99,98,94,29.42,29.17,3,0,3,0.93
2013-5-12,66.2,57.1,42.0,59.6,52.7,37.5,100,87,51,29.25,29.04,9,0,9,0.02
2013-5-13,56.4,46.9,36.6,37.7,32.3,28.3,88,60,36,29.55,29.25,6,0,13,0.00
2013-5-14,56.1,46.1,32.7,37.1,31.7,27.0,93,60,36,29.55,29.47,18,3,19,0.00
2013-5-15,67.3,47.9,31.1,48.4,37.0,29.0,97,72,30,29.55,29.17,3,0,9,0.15
2013-5-16,74.5,58.7,47.2,57.0,45.8,37.3,99,69,28,29.34,29.08,20,1,20,0.01
2013-5-17,63.1,55.4,48.6,43.4,40.9,36.9,79,59,40,29.73,29.34,22,3,22,0.00
2013-5-18,68.7,54.4,39.7,48.7,43.0,37.3,97,69,35,29.85,29.73,4,0,4,0.00
2013-5-19,61.4,51.3,42.4,52.7,46.8,40.0,95,85,68,29.89,29.73,3,0,3,0.11
2013-5-20,72.7,57.5,49.4,62.1,54.0,48.1,99,89,59,29.73,29.43,11,0,11,0.36
2013-5-21,54.7,52.4,50.1,54.4,51.6,49.6,99,97,92,29.67,29.48,4,0,4,0.52
2013-5-22,56.7,52.4,48.8,54.7,51.4,48.4,99,96,90,29.53,29.43,1,0,1,0.22
2013-5-23,69.2,58.2,49.4,66.3,57.2,48.7,99,96,89,29.46,29.27,2,0,2,0.03
2013-5-24,65.6,59.4,48.7,65.6,57.6,46.6,100,94,79,29.40,29.15,19,2,19,1.26
2013-5-25,50.4,46.7,41.7,47.6,44.6,39.4,97,93,84,29.39,29.23,18,3,18,0.57
2013-5-26,50.8,46.3,41.5,42.7,39.8,36.8,94,78,67,29.53,29.19,21,4,21,0.04
2013-5-27,66.3,51.5,35.8,43.3,38.3,33.7,97,65,33,29.71,29.52,17,1,17,0.00
2013-5-28,73.9,55.2,36.8,48.3,41.6,34.9,98,66,29,29.77,29.66,7,0,7,0.00
2013-5-29,55.7,51.3,46.1,54.8,49.6,42.6,98,94,80,29.72,29.52,0,0,1,0.16
2013-5-30,85.3,67.3,54.2,67.1,59.8,53.6,100,80,40,29.56,29.49,6,0,6,0.00
2013-5-31,91.0,72.2,55.9,72.0,63.9,54.5,99,78,42,29.58,29.39,6,0,7,0.00
2013-6-1,91.7,73.8,60.0,73.2,65.2,58.6,98,78,35,29.44,29.30,10,0,10,0.00
2013-6-2,90.8,71.7,62.1,72.8,66.0,60.6,99,85,48,29.33,29.12,14,0,14,0.57
2013-6-3,79.4,67.4,55.8,67.0,60.6,50.1,100,81,42,29.31,29.19,5,0,5,0.01
2013-6-4,63.1,55.9,47.9,50.5,45.6,41.8,94,69,48,29.59,29.30,25,2,25,0.00
2013-6-5,73.1,60.6,50.4,47.7,43.1,36.6,81,55,30,29.68,29.58,17,1,17,0.00
2013-6-6,71.2,58.9,48.4,53.1,47.2,41.5,87,67,41,29.75,29.65,2,0,3,0.00
2013-6-7,57.2,54.4,51.2,53.7,51.3,44.7,98,90,68,29.66,29.48,4,0,4,0.74
2013-6-8,70.2,60.1,51.2,62.2,56.0,50.5,98,87,69,29.50,29.24,18,2,18,0.96
2013-6-9,73.9,64.0,54.8,60.8,56.4,53.1,98,78,49,29.68,29.50,7,0,7,0.00
2013-6-10,71.6,61.9,50.6,61.2,55.9,48.9,98,82,60,29.74,29.56,3,0,3,0.00
2013-6-11,59.2,56.1,54.3,56.4,54.6,53.5,98,95,86,29.56,29.10,9,0,9,1.25
2013-6-12,62.1,58.2,52.9,56.2,54.0,51.5,99,87,74,29.32,29.07,11,1,15,0.10
2013-6-13,70.4,60.4,48.4,59.6,54.5,46.8,98,82,59,29.32,29.23,4,0,4,0.00
2013-6-14,75.5,62.7,52.7,58.4,53.1,47.4,98,74,39,29.28,29.18,15,1,15,0.00
2013-6-15,72.8,61.5,49.8,53.0,47.7,42.1,95,64,37,29.42,29.28,17,1,17,0.00
2013-6-16,74.4,59.8,48.4,61.0,53.9,45.9,97,83,49,29.42,29.23,3,0,3,0.02
2013-6-17,74.3,62.1,53.9,65.2,59.4,53.2,99,92,59,29.40,29.24,6,0,6,0.03
2013-6-18,67.3,58.8,51.6,59.7,55.5,50.5,99,90,67,29.51,29.38,0,0,1,0.00
2013-6-19,72.5,59.2,45.9,53.1,47.5,41.6,99,69,35,29.68,29.47,7,1,12,0.00
2013-6-20,77.8,60.3,43.4,58.4,50.0,41.3,98,72,41,29.78,29.67,3,0,3,0.00
2013-6-21,81.7,62.6,49.4,66.4,55.6,47.5,98,80,47,29.76,29.69,2,0,2,0.00
2013-6-22,75.9,64.9,54.4,69.1,61.1,52.7,98,88,64,29.74,29.63,3,0,3,0.01
2013-6-23,76.9,67.5,63.1,72.6,66.4,62.5,100,96,83,29.65,29.48,4,0,4,0.99
2013-6-24,90.1,73.8,65.8,75.5,69.0,65.5,100,86,55,29.49,29.34,10,0,10,0.01
2013-6-25,84.5,72.8,63.8,75.0,68.5,62.2,98,87,65,29.38,29.20,7,0,7,0.28
2013-6-26,73.3,68.4,62.6,72.4,67.4,61.1,100,97,86,29.38,29.23,1,0,3,0.00
2013-6-27,70.4,63.5,58.1,67.6,61.8,57.5,99,94,88,29.40,29.31,1,0,1,0.03
2013-6-28,63.0,60.7,58.1,62.7,60.2,57.5,100,98,96,29.34,29.06,4,0,5,1.70
2013-6-29,77.1,65.9,61.6,73.9,65.2,61.3,100,98,77,29.19,29.04,4,0,6,0.48
2013-6-30,80.4,70.7,63.0,74.6,67.9,62.7,100,92,70,29.43,29.19,2,0,2,0.01
2013-7-1,77.3,71.0,65.1,73.0,69.0,64.2,100,94,84,29.60,29.42,0,0,0,0.53
2013-7-2,69.5,62.1,59.0,69.2,61.2,57.9,99,97,92,29.75,29.58,6,1,9,1.35
2013-7-3,83.5,68.4,59.0,78.4,66.8,58.7,100,95,83,29.73,29.58,4,0,4,0.01
2013-7-4,86.9,76.7,69.0,79.4,73.0,68.7,100,89,65,29.68,29.54,9,0,9,0.00
2013-7-5,91.9,77.0,66.8,78.7,71.8,66.0,100,86,54,29.63,29.50,6,0,6,0.00
2013-7-6,86.6,76.0,66.7,76.0,70.0,63.5,99,83,61,29.54,29.45,3,0,5,0.00
2013-7-7,83.6,72.7,63.2,75.6,68.6,61.4,97,88,68,29.50,29.42,2,0,2,0.00
2013-7-8,71.5,68.5,66.3,70.9,67.8,65.9,99,97,92,29.59,29.43,3,0,3,0.48
2013-7-9,70.2,67.5,65.7,69.4,67.1,65.4,100,99,97,29.63,29.58,1,0,1,0.04
2013-7-10,66.6,65.2,64.1,66.2,64.9,63.8,100,99,98,29.59,29.29,1,0,1,1.30
2013-7-11,74.8,67.9,61.5,72.4,66.7,60.1,100,96,78,29.51,29.27,4,0,4,0.25
2013-7-12,81.8,67.1,55.9,69.2,61.7,55.1,100,84,56,29.74,29.51,2,0,3,0.00
2013-7-13,80.0,69.1,58.0,71.1,64.1,56.8,100,85,55,29.84,29.74,2,0,2,0.00
2013-7-14,89.5,73.0,61.8,77.2,68.9,60.8,100,88,63,29.81,29.69,3,0,3,0.00
2013-7-15,92.0,76.5,63.8,72.6,68.3,62.9,100,78,47,29.72,29.59,9,0,13,0.00
2013-7-16,91.3,76.7,66.2,74.6,68.4,64.8,99,78,48,29.68,29.62,6,0,10,0.00
2013-7-17,90.2,76.2,63.9,79.0,70.4,62.6,99,83,63,29.69,29.45,9,0,9,0.00
2013-7-18,83.6,74.7,67.5,77.1,71.9,67.1,100,92,72,29.52,29.44,1,0,1,0.10
2013-7-19,90.2,77.9,70.2,79.5,73.6,68.4,100,88,58,29.46,29.13,5,0,7,0.04
2013-7-20,83.2,73.6,66.1,75.0,69.3,60.3,97,87,65,29.31,29.10,13,0,13,0.00
2013-7-21,78.9,68.4,60.0,68.2,62.8,58.3,97,83,64,29.54,29.31,2,0,2,0.00
2013-7-22,70.2,65.6,59.0,67.4,62.6,57.2,98,91,74,29.57,29.44,3,0,3,0.00
2013-7-23,67.8,63.8,59.7,67.6,63.1,58.5,100,97,91,29.44,29.06,2,0,2,1.46
2013-7-24,74.0,65.9,55.8,71.2,60.9,49.0,100,85,61,29.51,29.08,15,1,15,0.00
2013-7-25,73.7,60.6,47.8,63.2,54.2,45.9,98,81,57,29.64,29.51,3,0,3,0.00
2013-7-26,72.6,65.1,60.4,64.5,61.6,59.0,98,89,73,29.63,29.45,12,0,12,0.00
2013-7-27,83.5,69.7,58.8,71.0,63.9,57.8,99,83,56,29.53,29.45,2,0,2,0.00
2013-7-28,76.2,67.4,58.2,69.2,64.4,57.0,99,90,75,29.55,29.51,2,0,2,0.07
2013-7-29,78.0,67.6,63.6,71.7,66.1,62.3,100,95,74,29.57,29.47,1,0,1,0.14
2013-7-30,76.9,66.9,58.3,63.9,59.7,54.9,99,80,51,29.61,29.53,5,0,7,0.01
2013-7-31,79.3,65.2,53.3,66.9,59.2,52.2,99,83,54,29.65,29.54,3,0,3,0.00
2013-8-1,76.1,65.9,56.5,67.6,62.0,55.1,100,88,67,29.57,29.37,3,0,3,0.02
2013-8-2,73.5,65.7,59.0,69.3,64.0,57.6,100,94,78,29.37,29.25,12,0,12,0.66
2013-8-3,74.2,62.9,56.4,64.5,58.9,55.7,100,88,58,29.35,29.24,7,0,7,0.00
2013-8-4,71.0,61.3,53.4,63.4,56.6,52.4,99,85,63,29.38,29.28,11,0,11,0.10
2013-8-5,70.9,60.9,51.0,53.6,50.2,43.5,95,70,44,29.55,29.36,16,2,19,0.00
2013-8-6,76.5,59.9,46.3,63.8,53.2,44.5,99,81,47,29.67,29.55,2,0,2,0.00
2013-8-7,74.9,62.8,51.9,66.2,57.8,50.3,99,85,63,29.71,29.60,3,0,3,0.00
2013-8-8,75.1,65.7,59.6,70.4,63.6,56.5,99,93,83,29.63,29.50,4,0,4,0.02
2013-8-9,71.3,68.4,64.3,71.3,67.9,63.7,100,99,96,29.52,29.26,3,0,3,1.59
2013-8-10,76.2,66.4,54.4,66.6,58.3,50.1,100,78,43,29.52,29.26,7,0,9,0.02
2013-8-11,75.2,60.6,48.6,64.0,54.4,47.3,99,82,53,29.58,29.49,4,0,4,0.00
2013-8-12,77.4,64.1,52.9,65.8,58.0,51.6,99,82,53,29.53,29.41,3,0,3,0.00
2013-8-13,65.3,61.7,56.3,65.0,60.6,55.0,99,96,89,29.43,29.21,1,0,1,0.71
2013-8-14,74.4,64.3,59.0,64.0,58.0,49.2,100,82,51,29.41,29.15,10,1,11,0.02
2013-8-15,72.5,59.9,48.5,61.1,53.7,47.1,99,81,53,29.60,29.41,3,0,3,0.00
2013-8-16,73.0,61.5,49.5,66.2,56.9,48.3,99,86,56,29.71,29.59,2,0,2,0.00
2013-8-17,78.4,63.9,53.8,63.8,56.8,52.4,99,80,48,29.79,29.71,5,0,5,0.00
2013-8-18,75.4,62.1,51.4,68.9,58.4,50.4,99,89,69,29.80,29.57,2,0,2,0.00
2013-8-19,81.3,64.6,53.0,69.9,60.0,51.9,100,86,57,29.58,29.42,7,0,9,0.00
2013-8-20,84.2,68.3,57.0,71.1,63.0,55.9,99,85,57,29.60,29.48,1,0,1,0.00
2013-8-21,84.6,70.0,57.6,71.9,64.7,56.2,99,85,59,29.66,29.50,3,0,3,0.00
2013-8-22,84.5,71.1,59.5,72.2,65.8,58.5,99,85,54,29.51,29.27,3,0,3,0.00
2013-8-23,76.1,67.9,56.3,65.8,55.2,47.8,91,65,42,29.68,29.29,14,2,14,0.00
2013-8-24,78.9,60.3,46.7,58.4,51.1,44.5,99,75,36,29.84,29.68,6,0,9,0.00
2013-8-25,78.9,60.7,48.4,62.4,54.1,46.7,99,81,50,29.90,29.66,2,0,2,0.00
2013-8-26,73.8,65.3,57.9,69.7,63.3,55.4,99,94,83,29.66,29.38,4,0,4,0.15
2013-8-27,82.5,68.8,61.3,72.0,64.9,60.7,100,89,62,29.42,29.34,1,0,2,0.00
2013-8-28,81.6,69.2,62.4,73.6,66.2,61.5,100,91,62,29.54,29.36,10,0,12,0.51
2013-8-29,64.5,62.7,60.6,63.7,61.9,60.0,99,97,92,29.63,29.51,4,0,4,0.02
2013-8-30,79.0,66.1,59.9,72.2,64.3,59.4,99,94,75,29.55,29.28,1,0,3,0.00
2013-8-31,77.8,70.0,64.9,73.2,68.2,64.4,99,94,80,29.33,29.28,1,0,4,0.01
2013-9-1,78.7,72.4,66.5,73.5,69.2,65.9,100,90,70,29.42,29.27,4,0,4,0.01
2013-9-2,69.9,66.7,65.2,69.6,66.3,64.9,99,99,98,29.41,29.25,3,0,4,2.49
2013-9-3,72.1,66.7,59.8,70.8,65.8,58.7,100,97,91,29.29,29.20,1,0,2,0.04
2013-9-4,74.0,63.6,54.3,66.6,59.1,53.6,100,86,57,29.41,29.27,5,0,5,0.01
2013-9-5,63.8,58.4,46.4,59.8,50.0,41.1,96,76,44,29.67,29.37,14,1,15,0.01
2013-9-6,66.2,51.9,40.9,55.6,45.7,39.5,99,81,49,29.75,29.56,3,0,4,0.00
2013-9-7,67.3,56.8,46.7,63.0,54.1,45.5,99,91,75,29.56,29.31,3,0,3,0.00
2013-9-8,60.7,56.2,44.9,56.9,50.0,40.6,99,81,54,29.59,29.24,14,1,17,0.17
2013-9-9,64.9,51.0,38.9,55.7,46.1,37.4,99,85,56,29.73,29.59,1,0,2,0.00
2013-9-10,62.7,54.5,45.3,61.5,53.5,44.2,99,97,93,29.62,29.54,0,0,0,0.02
2013-9-11,83.5,68.5,60.2,79.1,66.8,59.6,100,95,76,29.57,29.39,6,0,7,0.27
2013-9-12,75.5,68.2,64.9,73.6,67.5,64.6,100,98,89,29.51,29.17,2,0,2,0.51
2013-9-13,65.9,62.7,56.1,65.2,61.4,54.3,100,95,86,29.27,29.12,9,0,9,0.34
2013-9-14,63.2,56.8,48.6,57.7,53.0,47.0,99,88,69,29.55,29.26,11,1,13,0.18
2013-9-15,66.5,53.3,42.9,59.4,49.7,41.7,100,89,62,29.65,29.50,3,0,3,0.00
2013-9-16,58.7,52.6,43.4,56.1,47.5,35.8,99,84,61,29.80,29.49,20,1,20,0.00
2013-9-17,63.0,49.7,39.9,51.4,41.6,36.9,95,75,48,29.94,29.80,7,0,9,0.00
2013-9-18,66.8,51.1,39.3,58.5,46.6,38.4,99,86,47,29.83,29.62,1,0,1,0.00
2013-9-19,70.8,54.7,42.9,62.6,51.2,42.1,100,89,62,29.66,29.53,2,0,2,0.00
2013-9-20,71.7,57.1,46.5,63.0,53.7,45.9,100,89,65,29.64,29.51,2,0,2,0.00
2013-9-21,69.6,58.1,49.6,62.8,55.6,48.8,100,92,69,29.55,29.23,3,0,3,0.00
2013-9-22,68.2,61.8,52.0,64.1,57.8,42.6,100,88,61,29.31,29.08,13,1,16,0.55
2013-9-23,53.6,50.3,46.7,44.9,41.6,38.2,80,72,64,29.48,29.29,24,5,26,0.00
2013-9-24,54.5,50.1,44.7,45.3,42.5,39.1,87,75,63,29.46,29.34,19,1,19,0.00
2013-9-25,57.7,49.5,41.9,49.3,44.6,40.0,97,84,70,29.53,29.40,15,1,15,0.00
2013-9-26,62.9,49.8,38.6,53.5,45.7,37.2,99,87,65,29.69,29.53,12,1,12,0.00
2013-9-27,66.9,56.9,48.8,59.2,52.1,46.9,97,85,59,29.80,29.68,2,0,3,0.00
2013-9-28,69.1,54.9,44.3,59.2,50.4,43.5,100,86,56,29.88,29.79,3,0,4,0.00
2013-9-29,66.4,52.2,44.5,57.6,49.3,43.9,100,91,66,29.80,29.63,1,0,1,0.00
2013-9-30,66.6,51.9,42.1,59.2,49.3,41.6,100,92,71,29.66,29.50,2,0,2,0.00
2013-10-1,73.5,57.2,43.8,59.5,51.0,42.8,100,83,48,29.51,29.35,10,1,11,0.00
2013-10-2,74.0,59.1,48.7,61.5,54.0,47.9,100,85,57,29.43,29.28,6,0,9,0.00
2013-10-3,71.1,60.6,49.1,55.6,50.0,44.5,91,70,46,29.59,29.42,12,0,12,0.00
2013-10-4,66.5,54.5,43.6,60.1,51.2,42.4,99,89,68,29.63,29.55,2,0,3,0.00
2013-10-5,61.6,55.0,47.4,53.9,50.3,45.7,97,85,59,29.68,29.59,2,0,2,0.00
2013-10-6,51.5,48.5,46.2,46.5,43.4,37.9,97,83,63,29.82,29.68,3,0,4,0.10
2013-10-7,61.1,52.0,46.6,61.1,51.7,45.8,100,99,97,29.73,29.24,3,0,4,0.64
2013-10-8,58.4,50.3,39.8,57.1,43.0,37.0,100,78,47,29.92,29.35,18,2,18,0.00
2013-10-9,59.5,44.4,34.2,49.3,39.7,32.9,99,85,51,30.03,29.90,2,0,2,0.00
2013-10-10,63.0,46.6,37.7,54.1,43.2,37.0,99,89,58,29.90,29.72,2,0,2,0.00
2013-10-11,65.9,51.7,42.5,58.5,48.1,41.4,99,88,62,29.73,29.66,2,0,3,0.00
2013-10-12,55.9,50.1,42.5,53.6,48.6,41.4,100,95,89,29.94,29.73,1,0,2,0.00
2013-10-13,55.4,51.8,49.7,50.7,49.3,48.5,97,91,80,29.99,29.90,1,0,2,0.00
2013-10-14,61.8,54.2,49.4,56.5,50.7,46.7,94,88,72,29.90,29.74,3,0,3,0.00
2013-10-15,64.7,55.4,46.3,56.4,51.5,45.1,99,87,68,29.82,29.71,1,0,1,0.00
2013-10-16,59.3,54.0,46.5,53.0,51.1,44.9,95,90,72,29.72,29.41,1,0,2,0.00
2013-10-17,66.8,53.1,45.6,56.8,48.7,44.5,99,87,56,29.42,29.24,3,0,3,0.00
2013-10-18,61.6,53.9,47.4,56.0,49.3,40.8,100,86,58,29.36,29.12,5,0,5,0.36
2013-10-19,63.8,50.8,39.0,49.2,43.5,37.0,97,78,48,29.45,29.25,4,0,7,0.00
2013-10-20,58.5,50.3,41.9,47.7,39.9,32.5,98,71,39,29.48,29.17,19,0,19,0.00
2013-10-21,59.7,45.5,31.9,47.7,39.2,30.3,98,80,53,29.61,29.47,4,0,4,0.00
2013-10-22,53.3,46.9,40.1,51.2,44.4,35.2,96,91,82,29.48,29.21,5,0,5,0.00
2013-10-23,52.6,41.0,31.3,39.0,34.2,30.0,99,78,49,29.29,29.10,5,0,7,0.00
2013-10-24,48.6,39.8,31.2,34.9,31.1,25.8,93,73,45,29.34,29.14,7,0,9,0.00
2013-10-25,45.9,37.6,31.5,34.7,30.3,25.6,96,76,52,29.62,29.34,17,1,17,0.00
2013-10-26,45.6,36.8,27.5,35.0,30.7,25.1,95,79,56,29.63,29.37,5,0,5,0.00
2013-10-27,50.7,40.9,35.5,38.9,33.5,26.3,93,76,50,29.53,29.29,14,0,14,0.00
2013-10-28,46.4,38.2,30.1,39.0,30.0,22.1,91,73,52,29.88,29.52,15,1,20,0.00
2013-10-29,44.1,30.2,20.8,27.5,21.8,17.1,95,73,35,29.98,29.88,1,0,2,0.00
2013-10-30,46.8,32.8,23.3,31.2,25.3,20.0,92,76,43,29.89,29.69,2,0,3,0.00
2013-10-31,39.9,33.7,25.3,39.4,32.0,23.8,98,93,81,29.77,29.28,1,0,2,0.39
2013-11-1,61.4,53.9,39.9,61.4,51.3,39.3,100,92,64,29.28,28.82,6,0,9,0.67
2013-11-2,62.1,48.9,37.2,48.9,42.3,35.4,99,80,53,29.30,29.08,13,0,15,0.00
2013-11-3,42.8,36.8,31.4,36.0,24.4,15.8,77,61,43,29.97,29.30,18,4,19,0.00
2013-11-4,39.5,30.9,22.8,24.1,18.9,15.4,86,62,42,30.26,29.97,9,1,10,0.00
2013-11-5,45.4,30.0,20.3,29.5,23.8,18.0,95,79,48,30.26,30.02,4,0,5,0.00
2013-11-6,53.8,39.1,26.1,43.8,34.7,24.1,97,85,67,30.03,29.47,9,0,9,0.00
2013-11-7,53.2,48.2,37.7,52.7,42.7,25.6,98,82,60,29.48,29.16,16,1,17,0.01
2013-11-8,42.1,36.2,27.6,29.1,24.8,20.5,89,64,50,29.53,29.30,15,1,15,0.01
2013-11-9,41.9,36.3,32.1,30.2,23.6,19.6,92,60,46,29.65,29.53,15,0,19,0.00
2013-11-10,36.6,33.6,31.5,35.3,32.3,29.4,97,95,91,29.57,29.24,2,0,2,0.06
2013-11-11,42.9,37.6,32.1,34.7,30.6,26.9,98,77,56,29.55,29.28,12,0,20,0.01
2013-11-12,36.7,30.5,27.2,31.7,19.7,14.9,92,64,52,29.64,29.34,18,2,21,0.00
2013-11-13,31.1,25.3,20.2,17.7,14.3,10.0,79,63,43,29.77,29.58,17,1,19,0.00
2013-11-14,44.3,30.0,21.9,30.6,22.8,15.5,92,75,53,29.61,29.50,3,0,3,0.00
2013-11-15,42.4,30.0,22.8,33.2,26.0,21.1,97,86,61,29.71,29.60,2,0,2,0.00
2013-11-16,50.6,34.4,26.1,34.5,27.9,22.8,95,79,47,29.87,29.71,2,0,3,0.00
2013-11-17,37.1,31.6,23.9,36.6,30.3,21.9,98,95,87,29.89,29.44,1,0,1,0.26
2013-11-18,55.3,44.0,37.1,52.4,40.6,30.9,100,89,59,29.44,28.98,7,0,11,0.82
2013-11-19,42.1,34.0,29.3,33.5,20.8,15.0,74,58,49,29.79,29.08,24,3,24,0.00
2013-11-20,36.5,28.8,20.5,17.6,15.0,10.9,83,57,36,30.17,29.79,18,2,20,0.00
2013-11-21,38.8,26.3,16.4,23.5,18.1,13.9,95,73,45,30.17,29.86,2,0,3,0.00
2013-11-22,34.3,30.3,24.9,32.8,27.2,19.1,97,88,76,29.86,29.30,0,0,1,0.00
2013-11-23,36.1,30.5,22.9,31.2,22.7,15.8,98,74,45,29.38,29.21,14,1,15,0.00
2013-11-24,22.8,19.2,15.7,18.0,6.8,2.2,83,58,47,29.60,29.24,20,2,25,0.00
2013-11-25,26.3,20.5,12.7,14.5,6.3,-0.6,71,54,35,29.81,29.60,16,0,17,0.00
2013-11-26,31.1,27.0,22.8,27.7,22.8,12.2,95,84,57,29.83,29.67,1,0,1,0.00
2013-11-27,36.8,33.2,28.8,36.5,32.1,27.5,99,96,73,29.67,28.73,21,1,21,2.23
2013-11-28,35.9,25.3,14.5,30.6,15.4,6.5,87,66,42,29.91,28.82,18,0,21,0.00
2013-11-29,23.2,16.2,8.3,12.7,8.7,5.2,94,73,48,30.28,29.91,15,1,15,0.00
2013-11-30,25.6,16.1,4.0,18.7,9.5,0.8,93,76,50,30.35,29.94,4,0,5,0.00
2013-12-1,33.9,29.7,24.2,29.2,25.0,17.4,95,83,74,29.94,29.61,3,0,4,0.00
2013-12-2,35.1,32.4,30.5,34.6,31.6,29.2,98,97,95,29.61,29.46,1,0,1,0.14
2013-12-3,36.2,32.9,29.6,34.6,31.5,27.3,98,95,71,29.47,29.39,11,0,13,0.01
2013-12-4,38.6,30.2,23.9,29.7,25.7,22.0,96,84,63,29.73,29.42,8,0,10,0.00
2013-12-5,31.5,28.9,22.9,31.0,27.9,21.5,98,96,93,29.79,29.40,1,0,1,0.00
2013-12-6,39.7,33.5,31.2,39.4,33.0,30.7,99,98,98,29.64,29.38,2,0,2,0.25
2013-12-7,33.3,28.9,23.6,30.7,19.9,9.9,98,71,47,29.93,29.59,16,1,17,0.00
2013-12-8,28.0,22.5,16.9,17.2,12.1,8.2,83,65,45,30.10,29.92,7,0,10,0.00
2013-12-9,23.5,21.8,19.2,22.0,18.1,11.7,94,86,64,30.05,29.37,5,0,5,0.00
2013-12-10,28.7,21.5,14.1,27.1,19.5,10.7,96,92,82,29.43,29.26,2,0,3,0.00
2013-12-11,26.8,17.5,6.2,20.4,13.5,3.2,96,85,65,29.65,29.42,6,0,7,0.00
2013-12-12,16.7,5.8,-3.2,11.0,-0.0,-7.3,91,77,48,29.77,29.51,2,0,2,0.00
2013-12-13,21.8,7.5,-4.0,11.1,0.5,-7.8,93,74,51,29.92,29.42,17,1,17,0.00
2013-12-14,13.2,4.2,-7.3,4.6,-4.9,-11.7,86,67,42,30.15,29.92,5,0,5,0.00
2013-12-15,23.9,15.0,7.7,21.7,12.5,4.4,92,90,85,29.92,29.00,14,2,14,0.00
2013-12-16,19.3,6.6,-6.6,11.6,-0.5,-12.4,94,74,50,29.74,29.18,11,0,13,0.00
2013-12-17,11.2,-2.5,-21.8,6.4,-7.7,-26.8,89,78,59,29.84,29.59,1,0,1,0.00
2013-12-18,29.1,16.5,9.0,24.4,13.1,6.4,94,86,69,29.59,29.37,11,0,15,0.00
2013-12-19,27.5,16.6,7.1,24.4,14.2,4.3,95,90,82,29.61,29.43,4,0,4,0.00
2013-12-20,32.1,24.0,11.0,30.0,22.6,8.9,97,94,89,29.66,29.44,1,0,2,0.00
2013-12-21,36.3,32.1,28.3,33.7,30.9,27.3,98,95,89,29.47,29.35,1,0,2,0.15
2013-12-22,32.8,29.6,26.2,32.3,28.6,25.0,98,96,94,29.62,29.39,4,0,5,0.50
2013-12-23,31.1,29.0,26.4,30.6,28.3,25.5,98,97,96,29.64,29.49,2,0,2,0.00
2013-12-24,30.9,22.8,10.9,30.4,20.5,5.2,98,91,77,29.72,29.57,10,0,10,0.00
2013-12-25,16.6,9.8,4.1,12.7,5.3,-1.1,90,82,73,30.07,29.72,14,0,15,0.00
2013-12-26,18.8,10.6,0.1,16.5,8.1,-3.1,92,89,82,30.04,29.62,1,0,1,0.00
2013-12-27,27.6,12.8,0.0,25.3,10.6,-3.3,96,91,85,29.75,29.66,2,0,4,0.00
2013-12-28,32.4,15.8,1.6,30.1,13.8,-1.4,97,91,85,29.70,29.45,2,0,3,0.00
2013-12-29,31.4,22.1,10.6,30.9,20.9,8.5,98,95,89,29.57,29.09,0,0,1,0.00
2013-12-30,31.2,18.3,-6.7,30.6,15.5,-10.3,98,88,72,29.70,29.06,10,0,11,0.00
2013-12-31,9.4,-4.5,-13.1,4.1,-8.4,-17.0,90,83,76,29.70,29.56,1,0,1,0.00
2014-1-1,19.1,2.1,-12.9,13.3,-2.1,-16.8,94,82,67,29.92,29.65,10,0,10,0.00
2014-1-2,4.8,0.3,-3.9,0.4,-3.3,-7.5,90,85,79,29.95,29.54,12,1,12,0.00